Conway, Washington
Current Conditions -  °F | °C
As of 3:56 AM on Thursday 23 Oct 2014 (Local Time) from KNUW Reporting Station
Overcast Overcast  
Wind Chill: 56°   Ceiling: 3200
Heat Index: 56°   Visibility: 10mi
Dew Point: 50°   Wind: 8mph
Humidity: 80%   Direction: 130°SE
Pressure: 29.7"   Gusts: NA
Location:  48.34°N, 122.35°W
Report Text: KNUW 231056Z 13007KT 10SM FEW012 BKN032 OVC060 13/10 A2970 RMK AO2 SLP061 T01330100
Loading
Personal Weather Stations






























Interactive Weather Map New forecast layout! Learn more

10-Day Weather Forecast

Advertisements
Track Severe Weather on mobile